Time;durP1;ratioP1;P1;durP2;ratioP2;P2;SDS_P1;SDS_P2;PMS_P1;PMS_P2;Temp;Humidity;BMP_temperature;BMP_pressure;BME280_temperature;BME280_humidity;BME280_pressure;Samples;Min_cycle;Max_cycle;Signal;HPM_P1;HPM_P2
2023/01/04 00:01:40;;;;;;;7.90;2.67;;;;;;;;;;4979708;28;20203;-68
2023/01/04 00:04:05;;;;;;;7.60;2.10;;;;;;;;;;4977320;28;20695;-67
2023/01/04 00:06:31;;;;;;;9.47;1.70;;;;;;;;;;4985193;28;20206;-67
2023/01/04 00:08:56;;;;;;;5.43;1.70;;;;;;;;;;4986263;28;20187;-67
2023/01/04 00:11:23;;;;;;;9.43;1.70;;;;;;;;;;4974080;28;20663;-68
2023/01/04 00:13:51;;;;;;;11.30;3.00;;;;;;;;;;4981645;28;20380;-68
2023/01/04 00:16:19;;;;;;;6.37;1.70;;;;;;;;;;4992877;28;20214;-68
2023/01/04 00:18:45;;;;;;;7.57;2.20;;;;;;;;;;4998581;28;20198;-68
2023/01/04 00:21:10;;;;;;;6.90;1.70;;;;;;;;;;4990063;28;20635;-67
2023/01/04 00:23:37;;;;;;;10.47;1.97;;;;;;;;;;4980786;28;20236;-67
2023/01/04 00:26:10;;;;;;;3.83;1.37;;;;;;;;;;4990050;28;20192;-70
2023/01/04 00:28:36;;;;;;;3.80;1.53;;;;;;;;;;4977372;28;20760;-67
2023/01/04 00:31:03;;;;;;;6.63;2.10;;;;;;;;;;4989081;28;20210;-68
2023/01/04 00:33:28;;;;;;;5.80;1.40;;;;;;;;;;4985132;28;20253;-68
2023/01/04 00:35:54;;;;;;;8.80;1.87;;;;;;;;;;4995877;28;20191;-67
2023/01/04 00:38:19;;;;;;;4.97;1.63;;;;;;;;;;4994075;28;20315;-67
2023/01/04 00:40:44;;;;;;;8.20;1.70;;;;;;;;;;4987683;28;20219;-68
2023/01/04 00:43:10;;;;;;;5.43;1.40;;;;;;;;;;4981462;28;20192;-69
2023/01/04 00:45:35;;;;;;;6.83;1.97;;;;;;;;;;4983864;28;20191;-68
2023/01/04 00:48:00;;;;;;;8.87;1.70;;;;;;;;;;4988064;28;20278;-68
2023/01/04 00:50:26;;;;;;;8.43;1.83;;;;;;;;;;4988250;28;20219;-68
2023/01/04 00:52:51;;;;;;;6.83;1.87;;;;;;;;;;4983375;28;20199;-68
2023/01/04 00:55:16;;;;;;;6.83;1.60;;;;;;;;;;4991254;28;20199;-68
2023/01/04 00:57:42;;;;;;;7.23;1.80;;;;;;;;;;4984131;28;20307;-68
2023/01/04 01:00:08;;;;;;;7.30;1.60;;;;;;;;;;4986982;28;20730;-68
2023/01/04 01:02:33;;;;;;;4.80;2.00;;;;;;;;;;4982350;28;20218;-67
2023/01/04 01:04:58;;;;;;;9.57;1.97;;;;;;;;;;4989281;28;20205;-68
2023/01/04 01:07:24;;;;;;;8.63;2.10;;;;;;;;;;4984595;28;20192;-69
2023/01/04 01:09:49;;;;;;;4.97;1.87;;;;;;;;;;4977020;28;20491;-68
2023/01/04 01:12:14;;;;;;;9.10;3.33;;;;;;;;;;4983488;28;20221;-68
2023/01/04 01:14:40;;;;;;;9.27;1.90;;;;;;;;;;4992321;28;20199;-68
2023/01/04 01:17:05;;;;;;;8.07;2.20;;;;;;;;;;4986635;28;20211;-68
2023/01/04 01:19:31;;;;;;;7.60;2.00;;;;;;;;;;4989796;28;20214;-68
2023/01/04 01:21:57;;;;;;;8.80;1.90;;;;;;;;;;4984651;28;20329;-68
2023/01/04 01:24:22;;;;;;;10.90;2.70;;;;;;;;;;4984439;28;20270;-68
2023/01/04 01:26:47;;;;;;;6.70;2.53;;;;;;;;;;4984634;28;20208;-68
2023/01/04 01:29:13;;;;;;;10.87;2.53;;;;;;;;;;4992943;28;20454;-67
2023/01/04 01:31:39;;;;;;;7.57;1.97;;;;;;;;;;4984981;28;20226;-67
2023/01/04 01:34:04;;;;;;;13.27;1.83;;;;;;;;;;4985001;28;20714;-68
2023/01/04 01:36:30;;;;;;;11.90;3.03;;;;;;;;;;4983351;28;20262;-68
2023/01/04 01:38:55;;;;;;;13.50;2.40;;;;;;;;;;4984670;28;20878;-68
2023/01/04 01:41:27;;;;;;;7.90;2.25;;;;;;;;;;4983698;28;20202;-68
2023/01/04 01:44:12;;;;;;;6.53;1.93;;;;;;;;;;4978978;28;20187;-69
2023/01/04 01:46:47;;;;;;;7.37;2.27;;;;;;;;;;4979967;28;20285;-69
2023/01/04 01:49:27;;;;;;;8.50;2.67;;;;;;;;;;4981833;28;20191;-70
2023/01/04 01:51:55;;;;;;;8.27;2.30;;;;;;;;;;4985856;28;20713;-69
2023/01/04 01:54:25;;;;;;;10.50;2.50;;;;;;;;;;4985256;28;20286;-69
2023/01/04 01:56:53;;;;;;;3.90;2.17;;;;;;;;;;4981379;28;20199;-68
2023/01/04 01:59:20;;;;;;;6.33;2.50;;;;;;;;;;4982244;28;20191;-68
2023/01/04 02:01:46;;;;;;;10.27;2.20;;;;;;;;;;4982857;28;20195;-69
2023/01/04 02:04:14;;;;;;;7.00;2.40;;;;;;;;;;4979415;28;20202;-69
2023/01/04 02:06:44;;;;;;;4.83;2.40;;;;;;;;;;4986474;28;20625;-68
2023/01/04 02:09:11;;;;;;;5.53;2.17;;;;;;;;;;4983836;28;20325;-68
2023/01/04 02:11:36;;;;;;;7.13;2.67;;;;;;;;;;4984192;28;20283;-68
2023/01/04 02:17:05;;;;;;;9.20;2.40;;;;;;;;;;4983332;28;20203;-69
2023/01/04 02:20:02;;;;;;;5.30;2.53;;;;;;;;;;4985871;28;20207;-69
2023/01/04 02:22:45;;;;;;;6.40;2.30;;;;;;;;;;4984357;28;20194;-69
2023/01/04 02:25:32;;;;;;;9.05;2.58;;;;;;;;;;4983701;28;20223;-69
2023/01/04 02:28:34;;;;;;;4.78;2.20;;;;;;;;;;4989337;28;20663;-69
2023/01/04 02:31:25;;;;;;;6.60;2.42;;;;;;;;;;4993445;28;20194;-69
2023/01/04 02:34:01;;;;;;;4.22;2.30;;;;;;;;;;4986239;28;20258;-68
2023/01/04 02:36:39;;;;;;;5.80;3.03;;;;;;;;;;4984237;28;20223;-70
2023/01/04 02:39:42;;;;;;;8.75;2.83;;;;;;;;;;4985494;28;20199;-69
2023/01/04 02:44:51;;;;;;;6.70;2.75;;;;;;;;;;4986161;28;20220;-69
2023/01/04 02:45:12;;;;;;;4.13;2.40;;;;;;;;;;4984098;28;20224;-69
2023/01/04 02:50:31;;;;;;;4.40;2.50;;;;;;;;;;4986301;28;20271;-69
2023/01/04 02:53:01;;;;;;;5.82;2.97;;;;;;;;;;4983042;28;20198;-69
2023/01/04 02:55:38;;;;;;;7.28;2.20;;;;;;;;;;4983094;28;20352;-69
2023/01/04 02:58:35;;;;;;;6.30;2.10;;;;;;;;;;4977783;28;20585;-70
2023/01/04 03:07:25;;;;;;;5.65;2.55;;;;;;;;;;4976729;28;20603;-70
2023/01/04 03:10:00;;;;;;;7.20;2.80;;;;;;;;;;4980908;28;20642;-69
2023/01/04 03:12:31;;;;;;;6.47;3.33;;;;;;;;;;4984490;28;20249;-71
2023/01/04 03:15:08;;;;;;;6.63;2.70;;;;;;;;;;4978556;28;20303;-69
2023/01/04 03:17:43;;;;;;;8.80;2.60;;;;;;;;;;4983295;28;20736;-69
2023/01/04 03:20:11;;;;;;;3.67;2.38;;;;;;;;;;4975573;28;20210;-69
2023/01/04 03:37:22;;;;;;;5.70;1.90;;;;;;;;;;4987500;28;20701;-67
2023/01/04 03:49:10;;;;;;;3.08;1.60;;;;;;;;;;4978794;28;20194;-68
2023/01/04 03:51:37;;;;;;;2.67;1.80;;;;;;;;;;4986191;28;20202;-69
2023/01/04 03:54:10;;;;;;;4.00;2.10;;;;;;;;;;4991371;28;20211;-68
2023/01/04 03:56:40;;;;;;;3.25;1.73;;;;;;;;;;4985747;28;20215;-67
2023/01/04 03:59:06;;;;;;;4.75;2.00;;;;;;;;;;4984033;28;20230;-68
2023/01/04 04:01:31;;;;;;;4.53;1.60;;;;;;;;;;4984174;28;20249;-68
2023/01/04 04:09:24;;;;;;;3.33;1.77;;;;;;;;;;4979769;28;20200;-68
2023/01/04 04:11:50;;;;;;;2.65;1.95;;;;;;;;;;4987955;28;20199;-67
2023/01/04 04:14:15;;;;;;;2.03;1.80;;;;;;;;;;4984365;28;20200;-68
2023/01/04 04:16:40;;;;;;;3.25;1.95;;;;;;;;;;4982442;28;20266;-68
2023/01/04 04:19:06;;;;;;;3.63;1.90;;;;;;;;;;4987886;28;20643;-68
2023/01/04 04:21:31;;;;;;;3.25;1.60;;;;;;;;;;4989607;28;20195;-67
2023/01/04 04:23:57;;;;;;;2.03;1.83;;;;;;;;;;4989759;28;20243;-68
2023/01/04 04:26:23;;;;;;;2.83;1.88;;;;;;;;;;4990420;28;20196;-67
2023/01/04 04:28:48;;;;;;;4.60;2.65;;;;;;;;;;4988341;28;20207;-68
2023/01/04 04:31:14;;;;;;;3.15;2.10;;;;;;;;;;4989340;28;20908;-68
2023/01/04 04:33:39;;;;;;;4.72;2.50;;;;;;;;;;4989133;28;20191;-68
2023/01/04 04:36:06;;;;;;;3.53;2.10;;;;;;;;;;4983003;28;20196;-68
2023/01/04 04:38:31;;;;;;;3.40;2.28;;;;;;;;;;4988927;28;20204;-68
2023/01/04 04:43:41;;;;;;;2.58;2.30;;;;;;;;;;4987687;28;20398;-67
2023/01/04 04:46:06;;;;;;;2.30;2.10;;;;;;;;;;4981786;28;20203;-67
2023/01/04 04:48:31;;;;;;;3.03;2.57;;;;;;;;;;4988344;28;20688;-67
2023/01/04 04:50:57;;;;;;;3.60;2.80;;;;;;;;;;4988340;28;20199;-69
2023/01/04 04:53:22;;;;;;;2.75;2.50;;;;;;;;;;4992871;28;20202;-67
2023/01/04 04:55:54;;;;;;;2.70;2.50;;;;;;;;;;4983526;28;20250;-68
2023/01/04 04:58:20;;;;;;;2.80;2.60;;;;;;;;;;4980833;28;20211;-67
2023/01/04 05:00:45;;;;;;;3.35;3.05;;;;;;;;;;4979770;28;20302;-68
2023/01/04 05:03:11;;;;;;;4.30;3.33;;;;;;;;;;4986589;28;20657;-69
2023/01/04 05:05:36;;;;;;;4.40;3.15;;;;;;;;;;4989373;28;20198;-67
2023/01/04 05:08:02;;;;;;;3.50;3.20;;;;;;;;;;4986954;28;20326;-68
2023/01/04 05:10:27;;;;;;;3.88;3.47;;;;;;;;;;4998368;28;20195;-68
2023/01/04 05:12:58;;;;;;;3.55;3.25;;;;;;;;;;4994581;28;20199;-68
2023/01/04 05:15:25;;;;;;;3.65;3.30;;;;;;;;;;4999250;28;20198;-67
2023/01/04 05:17:51;;;;;;;3.72;3.42;;;;;;;;;;4993554;28;20581;-68
2023/01/04 05:20:16;;;;;;;3.95;3.58;;;;;;;;;;4992665;28;20226;-67
2023/01/04 05:22:42;;;;;;;4.57;3.75;;;;;;;;;;4999103;28;20280;-68
2023/01/04 05:25:08;;;;;;;4.28;3.70;;;;;;;;;;4995433;28;20558;-67
2023/01/04 05:27:35;;;;;;;3.97;3.60;;;;;;;;;;4996497;28;20183;-67
2023/01/04 05:32:44;;;;;;;3.33;2.97;;;;;;;;;;4979798;28;20192;-67
2023/01/04 05:35:10;;;;;;;5.25;3.80;;;;;;;;;;4988864;28;20199;-68
2023/01/04 05:37:35;;;;;;;4.18;3.70;;;;;;;;;;4986552;28;20298;-68
2023/01/04 05:40:00;;;;;;;4.00;3.60;;;;;;;;;;4999539;28;20198;-69
2023/01/04 05:42:26;;;;;;;3.80;3.50;;;;;;;;;;4993689;28;20318;-67
2023/01/04 05:44:54;;;;;;;4.35;4.00;;;;;;;;;;4985191;28;20270;-67
2023/01/04 05:47:20;;;;;;;5.00;3.30;;;;;;;;;;4997208;28;20205;-67
2023/01/04 05:49:46;;;;;;;4.03;3.63;;;;;;;;;;5000011;28;20246;-67
2023/01/04 05:52:20;;;;;;;3.60;3.30;;;;;;;;;;5000782;28;20654;-68
2023/01/04 05:54:46;;;;;;;4.68;3.80;;;;;;;;;;4990518;28;20286;-67
2023/01/04 05:57:11;;;;;;;4.43;4.03;;;;;;;;;;4986773;28;20222;-67
2023/01/04 05:59:37;;;;;;;3.55;3.25;;;;;;;;;;4996029;28;20250;-68
2023/01/04 06:02:03;;;;;;;4.72;3.72;;;;;;;;;;4990724;28;20607;-68
2023/01/04 06:04:29;;;;;;;4.03;3.72;;;;;;;;;;4998623;28;20554;-68
2023/01/04 06:06:54;;;;;;;6.93;3.85;;;;;;;;;;5001619;28;20200;-69
2023/01/04 06:09:20;;;;;;;4.15;3.40;;;;;;;;;;4998548;28;20627;-68
2023/01/04 06:11:45;;;;;;;5.40;3.60;;;;;;;;;;4999185;28;20479;-68
2023/01/04 06:14:10;;;;;;;3.70;3.20;;;;;;;;;;4998446;28;20230;-68
2023/01/04 06:16:36;;;;;;;3.40;3.10;;;;;;;;;;4992716;28;20212;-68
2023/01/04 06:19:01;;;;;;;3.33;3.03;;;;;;;;;;4986529;28;20187;-67
2023/01/04 06:21:27;;;;;;;4.90;3.28;;;;;;;;;;4991833;28;20202;-68
2023/01/04 06:23:53;;;;;;;3.47;3.17;;;;;;;;;;4995625;28;20663;-68
2023/01/04 06:26:19;;;;;;;3.22;2.92;;;;;;;;;;4997767;28;20190;-67
2023/01/04 06:28:44;;;;;;;3.60;3.30;;;;;;;;;;4988890;28;20209;-69
2023/01/04 06:31:10;;;;;;;4.85;3.20;;;;;;;;;;4992983;28;20194;-68
2023/01/04 06:33:37;;;;;;;3.42;2.90;;;;;;;;;;4990224;28;20587;-68
2023/01/04 06:36:04;;;;;;;5.30;3.28;;;;;;;;;;4999495;28;20241;-69
2023/01/04 06:38:30;;;;;;;3.95;3.40;;;;;;;;;;4990512;28;20222;-70
2023/01/04 06:40:56;;;;;;;3.63;3.08;;;;;;;;;;4994889;28;20297;-70
2023/01/04 06:43:21;;;;;;;3.20;2.70;;;;;;;;;;4994770;28;20266;-71
2023/01/04 06:45:47;;;;;;;4.88;2.63;;;;;;;;;;4996249;28;20581;-72
2023/01/04 06:48:12;;;;;;;3.40;2.85;;;;;;;;;;4992300;28;20199;-70
2023/01/04 06:50:37;;;;;;;3.10;2.80;;;;;;;;;;4993749;28;21321;-70
2023/01/04 06:53:03;;;;;;;3.08;2.40;;;;;;;;;;4996190;28;20191;-70
2023/01/04 06:55:29;;;;;;;4.68;2.95;;;;;;;;;;4983975;28;20191;-70
2023/01/04 06:57:55;;;;;;;3.25;2.97;;;;;;;;;;4977728;28;20569;-70
2023/01/04 07:00:20;;;;;;;5.72;2.80;;;;;;;;;;4981678;28;21010;-70
2023/01/04 07:02:46;;;;;;;3.53;3.00;;;;;;;;;;4985943;28;20191;-71
2023/01/04 07:05:11;;;;;;;2.90;2.60;;;;;;;;;;4983297;28;20197;-71
2023/01/04 07:07:37;;;;;;;3.22;2.80;;;;;;;;;;4987867;28;20190;-70
2023/01/04 07:10:03;;;;;;;2.95;2.65;;;;;;;;;;4993046;28;20187;-71
2023/01/04 07:12:28;;;;;;;3.10;2.50;;;;;;;;;;4982861;28;20195;-70
2023/01/04 07:14:54;;;;;;;2.50;2.30;;;;;;;;;;4996550;28;20718;-69
2023/01/04 07:17:19;;;;;;;3.80;2.28;;;;;;;;;;4992595;28;20221;-69
2023/01/04 07:19:44;;;;;;;2.90;2.58;;;;;;;;;;4990968;28;20190;-69
2023/01/04 07:22:10;;;;;;;2.50;2.30;;;;;;;;;;4988099;28;20282;-68
2023/01/04 07:24:35;;;;;;;3.65;2.53;;;;;;;;;;4994033;28;20246;-68
2023/01/04 07:27:01;;;;;;;3.20;2.90;;;;;;;;;;4969702;28;20192;-68
2023/01/04 07:29:26;;;;;;;4.53;3.30;;;;;;;;;;4993599;28;20195;-68
2023/01/04 07:31:52;;;;;;;4.47;3.03;;;;;;;;;;4986285;28;20191;-69
2023/01/04 07:34:21;;;;;;;4.05;3.60;;;;;;;;;;4987491;28;20188;-68
2023/01/04 07:36:47;;;;;;;3.88;3.47;;;;;;;;;;4985333;28;20267;-69
2023/01/04 07:39:13;;;;;;;4.53;4.13;;;;;;;;;;4992522;28;20282;-69
2023/01/04 07:41:39;;;;;;;8.85;4.95;;;;;;;;;;4983939;28;20279;-68
2023/01/04 07:44:06;;;;;;;6.95;4.95;;;;;;;;;;4985468;28;20199;-69
2023/01/04 07:46:32;;;;;;;6.15;5.15;;;;;;;;;;4980666;28;20251;-69
2023/01/04 07:48:57;;;;;;;6.32;5.20;;;;;;;;;;4978572;28;20296;-69
2023/01/04 07:51:23;;;;;;;6.53;5.53;;;;;;;;;;4988308;28;20674;-69
2023/01/04 07:53:49;;;;;;;7.60;5.53;;;;;;;;;;4989107;28;20666;-69
2023/01/04 07:56:14;;;;;;;6.63;5.93;;;;;;;;;;4992080;28;20199;-69
2023/01/04 07:58:41;;;;;;;7.47;5.15;;;;;;;;;;4994526;28;20184;-70
2023/01/04 08:01:12;;;;;;;5.50;5.00;;;;;;;;;;4984248;28;20215;-71
2023/01/04 08:03:37;;;;;;;6.60;5.78;;;;;;;;;;4988483;28;20202;-70
2023/01/04 08:06:04;;;;;;;6.95;4.90;;;;;;;;;;4996392;28;20186;-69
2023/01/04 08:08:30;;;;;;;7.93;4.82;;;;;;;;;;4999336;28;20199;-68
2023/01/04 08:11:03;;;;;;;7.28;5.15;;;;;;;;;;4997145;28;20187;-68
2023/01/04 08:13:28;;;;;;;6.97;5.05;;;;;;;;;;4997266;28;20209;-68
2023/01/04 08:15:54;;;;;;;8.45;5.20;;;;;;;;;;4996765;28;20194;-68
2023/01/04 08:18:19;;;;;;;8.27;5.30;;;;;;;;;;4994507;28;20199;-69
2023/01/04 08:20:45;;;;;;;6.93;4.72;;;;;;;;;;4999713;28;20314;-68
2023/01/04 08:23:10;;;;;;;5.18;4.45;;;;;;;;;;4997106;28;20211;-68
2023/01/04 08:25:35;;;;;;;8.13;5.07;;;;;;;;;;4996417;28;20195;-67
2023/01/04 08:28:01;;;;;;;5.55;4.20;;;;;;;;;;4990513;28;20192;-68
2023/01/04 08:30:26;;;;;;;6.03;4.40;;;;;;;;;;4986337;28;20518;-68
2023/01/04 08:32:52;;;;;;;5.82;4.55;;;;;;;;;;4993828;28;20290;-69
2023/01/04 08:35:18;;;;;;;7.82;4.75;;;;;;;;;;4999010;28;20266;-70
2023/01/04 08:37:44;;;;;;;4.72;4.28;;;;;;;;;;4998476;28;20671;-69
2023/01/04 08:40:10;;;;;;;5.25;4.40;;;;;;;;;;4999370;28;20646;-70
2023/01/04 08:42:35;;;;;;;5.97;4.80;;;;;;;;;;5001187;28;20484;-70
2023/01/04 08:45:01;;;;;;;6.95;4.40;;;;;;;;;;4999715;28;20192;-70
2023/01/04 08:47:28;;;;;;;8.10;4.60;;;;;;;;;;4990531;28;20683;-69
2023/01/04 08:49:54;;;;;;;5.20;3.90;;;;;;;;;;5000943;28;20249;-68
2023/01/04 08:52:20;;;;;;;5.15;4.53;;;;;;;;;;4997876;28;20186;-69
2023/01/04 08:54:46;;;;;;;7.25;4.13;;;;;;;;;;4997513;28;20266;-68
2023/01/04 08:57:11;;;;;;;3.72;3.42;;;;;;;;;;4993677;28;20334;-69
2023/01/04 08:59:36;;;;;;;6.40;3.97;;;;;;;;;;5005046;28;20622;-69
2023/01/04 09:02:02;;;;;;;5.22;4.00;;;;;;;;;;4996849;28;20191;-70
2023/01/04 09:04:27;;;;;;;5.03;3.70;;;;;;;;;;4987527;28;20364;-69
2023/01/04 09:06:52;;;;;;;5.32;3.72;;;;;;;;;;4999824;28;20183;-69
2023/01/04 09:09:18;;;;;;;6.40;3.83;;;;;;;;;;5001656;28;20257;-70
2023/01/04 09:11:43;;;;;;;4.90;3.47;;;;;;;;;;4998891;28;21896;-69
2023/01/04 09:14:09;;;;;;;4.57;3.28;;;;;;;;;;5000443;28;20199;-70
2023/01/04 09:16:36;;;;;;;5.13;3.40;;;;;;;;;;5002844;28;20732;-69
2023/01/04 09:19:02;;;;;;;3.88;2.88;;;;;;;;;;4995805;28;20624;-69
2023/01/04 09:21:28;;;;;;;3.72;3.20;;;;;;;;;;4997124;28;20253;-69
2023/01/04 09:23:55;;;;;;;6.28;2.92;;;;;;;;;;5001975;28;20694;-70
2023/01/04 09:26:22;;;;;;;6.45;3.20;;;;;;;;;;5002434;28;20195;-71
2023/01/04 09:28:52;;;;;;;4.22;2.70;;;;;;;;;;5000271;28;20277;-70
2023/01/04 09:31:20;;;;;;;6.07;2.63;;;;;;;;;;4992692;28;20223;-69
2023/01/04 09:33:46;;;;;;;4.55;3.17;;;;;;;;;;4991942;28;20286;-68
2023/01/04 09:36:13;;;;;;;3.53;3.00;;;;;;;;;;4990162;28;20231;-68
2023/01/04 09:38:39;;;;;;;4.18;3.15;;;;;;;;;;4984636;28;20766;-68
2023/01/04 09:41:13;;;;;;;3.95;2.75;;;;;;;;;;4985654;28;20263;-68
2023/01/04 09:43:47;;;;;;;3.95;2.72;;;;;;;;;;4967057;28;20188;-69
2023/01/04 09:46:22;;;;;;;3.95;2.70;;;;;;;;;;4989863;28;20593;-68
2023/01/04 09:49:27;;;;;;;4.93;3.08;;;;;;;;;;4750553;28;10000506;-68
2023/01/04 09:52:21;;;;;;;4.43;2.10;;;;;;;;;;4984210;28;20411;-68
2023/01/04 09:54:59;;;;;;;3.53;2.13;;;;;;;;;;4997212;28;20201;-70
2023/01/04 09:57:29;;;;;;;3.90;2.00;;;;;;;;;;4980701;28;20736;-69
2023/01/04 10:00:00;;;;;;;2.63;2.17;;;;;;;;;;4994959;28;20207;-69
2023/01/04 10:02:38;;;;;;;6.00;2.20;;;;;;;;;;4981612;28;20187;-69
2023/01/04 10:05:05;;;;;;;4.32;2.20;;;;;;;;;;4977576;28;20303;-70
2023/01/04 10:07:32;;;;;;;3.60;2.05;;;;;;;;;;4979229;28;20597;-69
2023/01/04 10:09:59;;;;;;;4.88;1.95;;;;;;;;;;4992585;28;20191;-69
2023/01/04 10:13:01;;;;;;;3.42;1.98;;;;;;;;;;4985234;28;20385;-68
2023/01/04 10:15:34;;;;;;;3.20;2.03;;;;;;;;;;4992904;28;20252;-69
2023/01/04 10:18:18;;;;;;;4.50;2.30;;;;;;;;;;4991588;28;20666;-69
2023/01/04 10:20:55;;;;;;;2.17;1.90;;;;;;;;;;4996449;28;20195;-69
2023/01/04 10:23:45;;;;;;;3.75;2.00;;;;;;;;;;4990338;28;20259;-69
2023/01/04 10:26:14;;;;;;;3.85;1.98;;;;;;;;;;4999356;28;20206;-69
2023/01/04 10:29:07;;;;;;;3.25;2.13;;;;;;;;;;4988543;28;20563;-68
2023/01/04 10:31:40;;;;;;;3.47;1.98;;;;;;;;;;4981412;28;20201;-69
2023/01/04 10:34:21;;;;;;;1.70;1.40;;;;;;;;;;4990732;28;20198;-69
2023/01/04 10:36:48;;;;;;;2.47;1.58;;;;;;;;;;4994390;28;20664;-68
2023/01/04 10:39:16;;;;;;;3.50;1.60;;;;;;;;;;4995094;28;20192;-69
2023/01/04 10:42:04;;;;;;;2.55;1.80;;;;;;;;;;4990302;28;20192;-69
2023/01/04 10:44:48;;;;;;;2.85;1.60;;;;;;;;;;4999445;28;20597;-68
2023/01/04 10:47:16;;;;;;;4.15;1.40;;;;;;;;;;4993038;28;20665;-70
2023/01/04 10:49:55;;;;;;;1.73;1.45;;;;;;;;;;4997556;28;20607;-69
2023/01/04 10:52:43;;;;;;;2.03;1.17;;;;;;;;;;4992502;28;20198;-70
2023/01/04 10:55:16;;;;;;;1.73;1.40;;;;;;;;;;4996911;28;20182;-70
2023/01/04 10:57:50;;;;;;;1.40;1.02;;;;;;;;;;4992885;28;20211;-69
2023/01/04 11:00:37;;;;;;;2.38;1.35;;;;;;;;;;4992621;28;20226;-69
2023/01/04 11:03:11;;;;;;;3.13;1.40;;;;;;;;;;4990776;28;20183;-68
2023/01/04 11:05:43;;;;;;;1.75;1.50;;;;;;;;;;4997780;28;20197;-68
2023/01/04 11:08:21;;;;;;;1.67;1.40;;;;;;;;;;4997726;28;20202;-69
2023/01/04 11:10:53;;;;;;;1.67;1.52;;;;;;;;;;4993136;28;20187;-67
2023/01/04 11:13:19;;;;;;;1.55;1.20;;;;;;;;;;4990183;28;20198;-69
2023/01/04 11:15:46;;;;;;;1.92;1.42;;;;;;;;;;4987163;28;20629;-67
2023/01/04 11:18:13;;;;;;;1.48;1.38;;;;;;;;;;4993646;28;20299;-68
2023/01/04 11:20:39;;;;;;;1.73;1.20;;;;;;;;;;4994567;28;20292;-69
2023/01/04 11:23:17;;;;;;;2.13;1.35;;;;;;;;;;4994878;28;20198;-69
2023/01/04 11:25:49;;;;;;;3.70;1.20;;;;;;;;;;4981243;28;20638;-69
2023/01/04 11:28:35;;;;;;;2.08;1.38;;;;;;;;;;4991774;28;20183;-70
2023/01/04 11:31:15;;;;;;;1.73;1.30;;;;;;;;;;4989801;28;20274;-70
2023/01/04 11:34:01;;;;;;;2.83;1.42;;;;;;;;;;5000103;28;20205;-69
2023/01/04 11:36:38;;;;;;;2.22;0.90;;;;;;;;;;4975555;28;20297;-69
2023/01/04 11:39:15;;;;;;;3.03;1.20;;;;;;;;;;4999317;28;20195;-69
2023/01/04 11:42:03;;;;;;;1.80;1.50;;;;;;;;;;4997570;28;20187;-68
2023/01/04 11:44:30;;;;;;;5.90;4.65;;;;;;;;;;4984408;28;20234;-70
2023/01/04 11:47:18;;;;;;;1.75;1.38;;;;;;;;;;4985843;28;20203;-69
2023/01/04 11:49:44;;;;;;;1.52;1.20;;;;;;;;;;4978214;28;20228;-69
2023/01/04 11:52:31;;;;;;;1.35;1.25;;;;;;;;;;4988312;28;20672;-68
2023/01/04 11:55:28;;;;;;;2.22;1.45;;;;;;;;;;4993659;28;20243;-68
2023/01/04 11:58:20;;;;;;;1.80;1.20;;;;;;;;;;4991368;28;20746;-68
2023/01/04 12:00:54;;;;;;;1.40;1.30;;;;;;;;;;4981100;28;20664;-70
2023/01/04 12:03:27;;;;;;;2.00;1.25;;;;;;;;;;4982651;28;20581;-69
2023/01/04 12:05:53;;;;;;;1.60;1.33;;;;;;;;;;4998201;28;20203;-70
2023/01/04 12:08:33;;;;;;;1.38;1.27;;;;;;;;;;4996442;28;20215;-68
2023/01/04 12:11:01;;;;;;;1.83;1.30;;;;;;;;;;4998787;28;20201;-68
2023/01/04 12:13:27;;;;;;;1.50;1.40;;;;;;;;;;5001247;28;20211;-69
2023/01/04 12:16:21;;;;;;;1.60;1.50;;;;;;;;;;4988977;28;20218;-68
2023/01/04 12:18:47;;;;;;;1.48;1.30;;;;;;;;;;4988949;28;20219;-68
2023/01/04 12:21:21;;;;;;;2.25;1.25;;;;;;;;;;4984500;28;20203;-68
2023/01/04 12:23:47;;;;;;;1.33;1.20;;;;;;;;;;4990907;28;20608;-68
2023/01/04 12:26:13;;;;;;;2.10;1.38;;;;;;;;;;4993902;28;20210;-70
2023/01/04 12:28:45;;;;;;;2.38;1.33;;;;;;;;;;4999646;28;20196;-69
2023/01/04 12:31:18;;;;;;;1.80;1.42;;;;;;;;;;5007427;28;20205;-69
2023/01/04 12:34:07;;;;;;;1.50;1.30;;;;;;;;;;4993891;28;20536;-69
2023/01/04 12:36:38;;;;;;;1.80;1.35;;;;;;;;;;4993981;28;20219;-69
2023/01/04 12:39:13;;;;;;;1.98;1.35;;;;;;;;;;4988847;28;20250;-70
2023/01/04 12:41:38;;;;;;;3.03;1.10;;;;;;;;;;4990558;28;20608;-69
2023/01/04 12:44:37;;;;;;;2.25;1.00;;;;;;;;;;4984739;28;20191;-69
2023/01/04 12:50:23;;;;;;;3.15;1.10;;;;;;;;;;4984096;28;20183;-69
2023/01/04 12:52:54;;;;;;;3.15;1.45;;;;;;;;;;4984557;28;20571;-69
2023/01/04 12:55:31;;;;;;;4.22;1.40;;;;;;;;;;4981342;28;20206;-69
2023/01/04 12:58:26;;;;;;;4.40;1.30;;;;;;;;;;4983906;28;20215;-68
2023/01/04 13:00:51;;;;;;;4.80;1.52;;;;;;;;;;5004316;28;20714;-69
2023/01/04 13:03:17;;;;;;;10.52;1.77;;;;;;;;;;4967841;28;20227;-69
2023/01/04 13:06:04;;;;;;;5.85;1.70;;;;;;;;;;4988451;28;20222;-69
2023/01/04 13:08:32;;;;;;;8.80;1.95;;;;;;;;;;4994259;28;20210;-68
2023/01/04 13:10:59;;;;;;;4.88;1.65;;;;;;;;;;4984853;28;20195;-69
2023/01/04 13:13:44;;;;;;;10.98;2.58;;;;;;;;;;4984027;28;20270;-69
2023/01/04 13:16:18;;;;;;;4.88;2.00;;;;;;;;;;4989059;28;20211;-68
2023/01/04 13:18:51;;;;;;;6.68;1.55;;;;;;;;;;4984323;28;20902;-68
2023/01/04 13:21:39;;;;;;;8.13;1.92;;;;;;;;;;4978899;28;20189;-69
2023/01/04 13:24:29;;;;;;;5.97;1.75;;;;;;;;;;4982509;28;20232;-68
2023/01/04 13:26:55;;;;;;;6.32;1.80;;;;;;;;;;4982454;28;20660;-69
2023/01/04 13:29:29;;;;;;;9.05;1.95;;;;;;;;;;4986181;28;20694;-68
2023/01/04 13:32:10;;;;;;;9.30;2.40;;;;;;;;;;4985119;28;20190;-68
2023/01/04 13:34:36;;;;;;;7.35;2.00;;;;;;;;;;4984705;28;20722;-68
2023/01/04 13:37:10;;;;;;;8.65;2.30;;;;;;;;;;4988498;28;20258;-67
2023/01/04 13:39:38;;;;;;;5.38;1.63;;;;;;;;;;4988941;28;20191;-68
2023/01/04 13:42:05;;;;;;;8.95;1.48;;;;;;;;;;4984649;28;20194;-67
2023/01/04 13:44:59;;;;;;;10.75;2.33;;;;;;;;;;4990389;28;20218;-68
2023/01/04 13:47:24;;;;;;;8.00;1.77;;;;;;;;;;4978643;28;20215;-67
2023/01/04 13:49:50;;;;;;;9.35;1.90;;;;;;;;;;4988362;28;20195;-67
2023/01/04 13:52:21;;;;;;;7.78;2.25;;;;;;;;;;4979265;28;20192;-67
2023/01/04 13:54:46;;;;;;;8.02;1.77;;;;;;;;;;4966002;28;20520;-66
2023/01/04 13:57:20;;;;;;;9.70;2.05;;;;;;;;;;4993960;28;20250;-67
2023/01/04 13:59:47;;;;;;;13.13;2.22;;;;;;;;;;4981106;28;20639;-67
2023/01/04 14:02:19;;;;;;;8.25;1.83;;;;;;;;;;4986104;28;20673;-67
2023/01/04 14:04:49;;;;;;;7.05;2.25;;;;;;;;;;4986830;28;20274;-67
2023/01/04 14:07:21;;;;;;;8.35;1.90;;;;;;;;;;4986474;28;20671;-67
2023/01/04 14:09:51;;;;;;;9.40;2.00;;;;;;;;;;4981840;28;20195;-67
2023/01/04 14:12:20;;;;;;;6.95;2.28;;;;;;;;;;4986927;28;20192;-68
2023/01/04 14:14:57;;;;;;;10.82;1.88;;;;;;;;;;4973285;28;20218;-68
2023/01/04 14:17:23;;;;;;;14.98;2.53;;;;;;;;;;4988548;28;20584;-67
2023/01/04 14:19:55;;;;;;;8.48;2.17;;;;;;;;;;4990843;28;20419;-67
2023/01/04 14:22:24;;;;;;;7.88;2.03;;;;;;;;;;4986823;28;20257;-68
2023/01/04 14:24:51;;;;;;;10.50;2.03;;;;;;;;;;4980639;28;20627;-67
2023/01/04 14:27:43;;;;;;;12.18;2.20;;;;;;;;;;4990600;28;20187;-68
2023/01/04 14:30:17;;;;;;;12.38;2.72;;;;;;;;;;4989327;28;20192;-68
2023/01/04 14:33:00;;;;;;;11.80;1.70;;;;;;;;;;4991593;28;20199;-68
2023/01/04 14:35:27;;;;;;;9.65;1.80;;;;;;;;;;4977031;28;20241;-68
2023/01/04 14:38:00;;;;;;;11.02;2.10;;;;;;;;;;4977850;28;20565;-67
2023/01/04 14:40:30;;;;;;;8.07;2.42;;;;;;;;;;4988020;28;20218;-67
2023/01/04 14:42:56;;;;;;;10.85;2.92;;;;;;;;;;4984886;28;20195;-67
2023/01/04 14:45:21;;;;;;;10.88;1.80;;;;;;;;;;4984260;28;20188;-68
2023/01/04 14:47:46;;;;;;;5.60;1.45;;;;;;;;;;4989248;28;20291;-67
2023/01/04 14:50:13;;;;;;;9.70;2.05;;;;;;;;;;4985404;28;20192;-67
2023/01/04 14:52:39;;;;;;;13.40;1.80;;;;;;;;;;4986544;28;20195;-68
2023/01/04 14:55:05;;;;;;;9.25;1.90;;;;;;;;;;4983216;28;20195;-67
2023/01/04 14:57:31;;;;;;;8.90;1.90;;;;;;;;;;4979505;28;20211;-67
2023/01/04 14:59:57;;;;;;;9.95;1.95;;;;;;;;;;4985701;28;20214;-67
2023/01/04 15:02:24;;;;;;;12.32;2.13;;;;;;;;;;4987636;28;20552;-66
2023/01/04 15:04:50;;;;;;;9.30;1.80;;;;;;;;;;4987311;28;20192;-67
2023/01/04 15:07:34;;;;;;;9.30;1.77;;;;;;;;;;4988119;28;20518;-68
2023/01/04 15:10:01;;;;;;;11.07;1.58;;;;;;;;;;4992468;28;20195;-67
2023/01/04 15:12:26;;;;;;;12.65;2.35;;;;;;;;;;4982588;28;20681;-67
2023/01/04 15:14:51;;;;;;;11.30;2.13;;;;;;;;;;4991691;28;20218;-67
2023/01/04 15:17:17;;;;;;;16.42;2.42;;;;;;;;;;4989915;28;20227;-67
2023/01/04 15:19:42;;;;;;;9.68;2.33;;;;;;;;;;4981038;28;20206;-67
2023/01/04 15:22:08;;;;;;;9.38;1.85;;;;;;;;;;4982370;28;20238;-67
2023/01/04 15:24:33;;;;;;;10.93;2.05;;;;;;;;;;4985771;28;20310;-67
2023/01/04 15:26:58;;;;;;;11.02;2.20;;;;;;;;;;4988609;28;20197;-67
2023/01/04 15:29:24;;;;;;;10.88;2.42;;;;;;;;;;4984404;28;20206;-67
2023/01/04 15:31:49;;;;;;;12.65;2.33;;;;;;;;;;4984034;28;20183;-67
2023/01/04 15:34:15;;;;;;;11.73;1.90;;;;;;;;;;4966993;28;20206;-67
2023/01/04 15:36:40;;;;;;;9.95;2.28;;;;;;;;;;4980721;28;20211;-67
2023/01/04 15:39:06;;;;;;;10.50;1.85;;;;;;;;;;4983213;28;20188;-67
2023/01/04 15:44:15;;;;;;;14.50;2.72;;;;;;;;;;4995365;28;20295;-67
2023/01/04 15:46:41;;;;;;;13.60;2.15;;;;;;;;;;4993941;28;20195;-67
2023/01/04 15:49:06;;;;;;;12.73;2.42;;;;;;;;;;4992962;28;20214;-67
2023/01/04 15:51:32;;;;;;;16.60;2.47;;;;;;;;;;4986390;28;20623;-67